• Join FlightAware (Why Join?)
  • Login
  • US Flag 
06:21AM EDT


 

Airport Tracker/Info


-or-


 

Live Flight TrackerFlight Track Log ✈ N2021T ✈ 07-Jul-2013 ✈ KBKL - KGAI

Flight Track Log - Related Links

Times and Time Zones

All times are in EDT time to prevent confusion due to time zone crossing. See the N2021T flight status page for this flight to view local times or setup timezone preferences in your user account.

Time Position Orientation Groundspeed Altitude Reporting Facility
EDT Latitude Longitude Course Direction KTS MPH feet Rate Location/Type
08:09AM 41.5125 -81.7061 354° North 122 140 1,100  Level Cleveland Center
08:11AM 41.5583 -81.7125 354° North 138 159 2,200 780 Climbing Cleveland Center
08:12AM 41.5817 -81.6769 49° Northeast 140 161 3,000 840 Climbing Cleveland Center
08:13AM 41.5592 -81.6292 122° Southeast 128 147 4,000 780 Climbing Cleveland Center
08:14AM 41.5386 -81.5872 123° Southeast 138 159 4,800 660 Climbing Cleveland Center
08:15AM 41.5183 -81.5400 120° Southeast 142 163 5,400 660 Climbing Cleveland Center
08:16AM 41.4956 -81.5008 128° Southeast 141 162 6,100 720 Climbing Cleveland Center
08:17AM 41.4731 -81.4561 124° Southeast 142 163 6,800  Climbing Cleveland Center
08:19AM 41.4301 -81.3705 114° Southeast  Level Estimated
08:26AM 41.2168 -81.0671 118° Southeast  Level FlightAware Approximate
08:27AM 41.1926 -81.0181 123° Southeast  Level FlightAware Approximate
08:28AM 41.1683 -80.9692 123° Southeast  Level FlightAware Approximate
08:29AM 41.1440 -80.9203 123° Southeast  Level FlightAware Approximate
08:30AM 41.1196 -80.8714 123° Southeast  Level FlightAware Approximate
08:31AM 41.0953 -80.8226 123° Southeast  Level FlightAware Approximate
08:32AM 41.0709 -80.7738 124° Southeast  Level FlightAware Approximate
08:33AM 41.0465 -80.7251 124° Southeast  Level FlightAware Approximate
08:34AM 41.0221 -80.6764 124° Southeast  Level FlightAware Approximate
08:35AM 40.9976 -80.6277 124° Southeast  Level FlightAware Approximate
08:36AM 40.9732 -80.5790 124° Southeast  Level FlightAware Approximate
08:37AM 40.9487 -80.5304 124° Southeast  Level FlightAware Approximate
08:38AM 40.9243 -80.4818 123° Southeast  Level FlightAware Approximate
08:39AM 40.9000 -80.4330 123° Southeast  Level FlightAware Approximate
08:40AM 40.8758 -80.3842 123° Southeast  Level FlightAware Approximate
08:41AM 40.8515 -80.3355 123° Southeast  Level FlightAware Approximate
08:42AM 40.8272 -80.2869 123° Southeast  Level FlightAware Approximate
08:43AM 40.8029 -80.2382 123° Southeast  Level FlightAware Approximate
08:44AM 40.7785 -80.1896 123° Southeast  Level FlightAware Approximate
08:45AM 40.7542 -80.1411 124° Southeast  Level FlightAware Approximate
08:46AM 40.7298 -80.0925 124° Southeast  Level FlightAware Approximate
08:47AM 40.7054 -80.0440 124° Southeast  Level FlightAware Approximate
08:47AM 40.6969 -79.9450 125° Southeast 159 183 7,100  Level Cleveland Center
08:48AM 40.6802 -79.9962 125° Southeast  Level FlightAware Approximate
08:49AM 40.6549 -79.9486 125° Southeast  Level FlightAware Approximate
08:49AM 40.6633 -79.8769 123° Southeast 166 191 6,900  Level Cleveland Center
08:50AM 40.6295 -79.9010 125° Southeast  Level FlightAware Approximate
08:50AM 40.6358 -79.8308 128° Southeast 164 189 7,000  Level Cleveland Center
08:51AM 40.6041 -79.8535 125° Southeast  Level FlightAware Approximate
08:51AM 40.6125 -79.7789 121° Southeast 160 184 7,000  Level Cleveland Center
08:52AM 40.5787 -79.8060 125° Southeast  Level FlightAware Approximate
08:52AM 40.5853 -79.7300 126° Southeast 155 178 7,000  Level Cleveland Center
08:53AM 40.5532 -79.7586 125° Southeast  Level FlightAware Approximate
08:53AM 40.5597 -79.6867 128° Southeast 157 181 7,000  Level Cleveland Center
08:54AM 40.5344 -79.6378 124° Southeast 160 184 7,000  Level Cleveland Center
08:55AM 40.5089 -79.5892 125° Southeast 162 186 7,000  Level Cleveland Center
08:56AM 40.4814 -79.5375 125° Southeast 161 185 7,000  Level Cleveland Center
08:57AM 40.4581 -79.4889 122° Southeast 163 188 7,000  Level Cleveland Center
08:58AM 40.4306 -79.4403 127° Southeast 166 191 7,000  Level Cleveland Center
08:59AM 40.4028 -79.3917 127° Southeast 165 190 7,000  Level Cleveland Center
09:00AM 40.3772 -79.3403 123° Southeast 162 186 7,000  Level Cleveland Center
09:01AM 40.3517 -79.2917 125° Southeast 161 185 7,000  Level Cleveland Center
09:02AM 40.3261 -79.2486 128° Southeast 157 181 7,000  Level Cleveland Center
09:03AM 40.3047 -79.2056 123° Southeast 155 178 7,000  Level Cleveland Center
09:04AM 40.2811 -79.1517 120° Southeast 157 181 7,000  Level Cleveland Center
09:05AM 40.2597 -79.1058 121° Southeast 156 180 7,000  Level Cleveland Center
09:06AM 40.2322 -79.0656 132° Southeast 153 176 7,000  Level Cleveland Center
09:07AM 40.2044 -79.0172 127° Southeast 154 177 7,000  Level Cleveland Center
09:08AM 40.1786 -78.9664 124° Southeast 153 176 7,000  Level Cleveland Center
09:10AM 40.1275 -78.8781 127° Southeast 150 173 7,000  Level Cleveland Center
09:11AM 40.1036 -78.8297 123° Southeast 150 173 7,000  Level Cleveland Center
09:12AM 40.0800 -78.7869 126° Southeast 150 173 7,000  Level Cleveland Center
09:13AM 40.0544 -78.7442 128° Southeast 150 173 7,000  Level Cleveland Center
09:14AM 40.0244 -78.6908 126° Southeast 151 174 7,000  Level Cleveland Center
09:15AM 40.0006 -78.6425 123° Southeast 152 175 7,000  Level Cleveland Center
09:16AM 39.9769 -78.6000 126° Southeast 153 176 7,000  Level Cleveland Center
09:17AM 39.9511 -78.5547 127° Southeast 152 175 7,000  Level Cleveland Center
09:18AM 39.9253 -78.5067 125° Southeast 153 176 7,000  Level Cleveland Center
09:20AM 39.8744 -78.4139 126° Southeast 174 200 7,000 -120 Level Washington Center
09:21AM 39.8483 -78.3725 129° Southeast 175 201 6,700 -540 Descending Washington Center
09:22AM 39.8119 -78.3278 137° Southeast 175 201 6,000 -360 Descending Washington Center
09:23AM 39.7853 -78.2997 141° Southeast 164 189 6,000  Level Washington Center
09:24AM 39.7467 -78.2553 138° Southeast 158 182 6,000  Level Washington Center
09:25AM 39.7142 -78.2217 141° Southeast 158 182 6,000  Level Washington Center
09:26AM 39.6878 -78.1908 138° Southeast 158 182 6,000  Level Washington Center
09:27AM 39.6572 -78.1547 138° Southeast 158 182 6,000  Level Washington Center
09:28AM 39.6247 -78.1186 139° Southeast 158 182 6,000  Level Washington Center
09:29AM 39.5942 -78.0825 138° Southeast 153 176 6,000  Level Washington Center
09:30AM 39.5636 -78.0492 140° Southeast 153 176 6,000  Level Washington Center
09:31AM 39.5311 -78.0131 139° Southeast 158 182 6,000  Level Washington Center
09:32AM 39.5006 -77.9772 138° Southeast 158 182 6,000  Level Washington Center
09:34AM 39.4333 -77.9000 138° Southeast 146 168 6,000 -60 Level Potomac TRACON
09:35AM 39.4167 -77.8833 142° Southeast 146 168 5,900 -420 Descending Potomac TRACON
09:36AM 39.3833 -77.8333 131° Southeast 162 186 5,300 -480 Descending Potomac TRACON
09:37AM 39.3833 -77.7667 90° East 178 205 5,000 -180 Descending Potomac TRACON
09:38AM 39.4000 -77.7167 67° East 173 199 5,000  Level Potomac TRACON
09:39AM 39.4167 -77.6500 72° East 162 186 5,000  Level Potomac TRACON
09:40AM 39.4167 -77.6000 90° East 156 180 5,000  Level Potomac TRACON
09:41AM 39.4167 -77.5500 90° East 157 181 5,000  Level Potomac TRACON
09:42AM 39.4333 -77.5000 67° East 155 178 5,000  Level Potomac TRACON
09:43AM 39.4333 -77.4333 90° East 157 181 5,000  Level Potomac TRACON
09:44AM 39.4500 -77.3833 67° East 155 178 5,000 -180 Level Potomac TRACON
09:45AM 39.4333 -77.3167 108° East 159 183 4,700 -660 Descending Potomac TRACON
09:46AM 39.4000 -77.2833 142° Southeast 178 205 3,700 -780 Descending Potomac TRACON
09:47AM 39.3500 -77.2667 166° South 169 194 3,200 -480 Descending Potomac TRACON
09:48AM 39.3167 -77.2500 159° South 167 192 2,800 -600 Descending Potomac TRACON
09:49AM 39.2667 -77.2167 153° Southeast 170 196 2,100 -660 Descending Potomac TRACON